This is the latest recevied weather packets stored in our database for station/object KJ6HT. If no packets are shown the sender has not sent any weather packets the latest 10 day(s).
| Time | Temp. | Humidity | Pressure | Rain* | Wind** | Luminosity | Snow |
|---|---|---|---|---|---|---|---|
| 1777761980 | 26.67° C | 50% | 1008.8 hPa | 0 mm | - | - | - |
| 1777761042 | 26.11° C | 51% | 1009.1 hPa | 0 mm | - | - | - |
| 1777760104 | 26.67° C | 51% | 1009.4 hPa | 0 mm | - | - | - |
| 1777759241 | 26.67° C | 49% | 1009.6 hPa | 0 mm | - | - | - |
| 1777758391 | 27.22° C | 49% | 1009.8 hPa | 0 mm | - | - | - |
| 1777757447 | 27.22° C | 51% | 1010 hPa | 0 mm | - | - | - |
| 1777756510 | 27.22° C | 50% | 1010.1 hPa | 0 mm | - | - | - |
| 1777755655 | 27.22° C | 52% | 1010.2 hPa | 0 mm | - | - | - |
| 1777754710 | 27.22° C | 52% | 1010.5 hPa | 0 mm | - | - | - |
| 1777753855 | 26.11° C | 53% | 1010.5 hPa | 0 mm | - | - | - |
| 1777752901 | 25.56° C | 57% | 1010.9 hPa | 0 mm | - | - | - |
| 1777752038 | 24.44° C | 59% | 1011.3 hPa | 0 mm | - | - | - |
| 1777751105 | 24.44° C | 60% | 1011.5 hPa | 0 mm | - | - | - |
| 1777750252 | 24.44° C | 60% | 1011.9 hPa | 0 mm | - | - | - |
| 1777749304 | 23.89° C | 64% | 1011.9 hPa | 0 mm | - | - | - |
| 1777748452 | 22.22° C | 67% | 1012.2 hPa | 0 mm | - | - | - |
| 1777747508 | 21.11° C | 71% | 1012.5 hPa | 0 mm | - | - | - |
| 1777746604 | 20.56° C | 72% | 1012.8 hPa | 0 mm | - | - | - |
| 1777745774 | 20.56° C | 74% | 1012.9 hPa | 0 mm | - | - | - |
| 1777744826 | 20° C | 75% | 1013.1 hPa | 0 mm | - | - | - |
| 1777743981 | 19.44° C | 78% | 1013.2 hPa | 0 mm | - | - | - |
| 1777743075 | 18.89° C | 79% | 1013.4 hPa | 0 mm | - | - | - |
| 1777742141 | 17.78° C | 83% | 1013.5 hPa | 0 mm | - | - | - |
| 1777741289 | 17.22° C | 85% | 1013.5 hPa | 0 mm | - | - | - |
| 1777740352 | 16.11° C | 88% | 1013.5 hPa | 0 mm | - | - | - |
* Rain latest hour (hover to see other rain measurements)
** Current wind speed in m/s (hover to see current wind gust speed)